sensor_id;sensor_type;location;lat;lon;timestamp;P1;durP1;ratioP1;P2;durP2;ratioP2
37445;SDS011;23307;51.136;14.942;2023-01-19T00:02:21;8.53;;;6.70;;
37445;SDS011;23307;51.136;14.942;2023-01-19T00:04:47;6.77;;;6.07;;
37445;SDS011;23307;51.136;14.942;2023-01-19T00:07:13;8.00;;;5.93;;
37445;SDS011;23307;51.136;14.942;2023-01-19T00:09:39;5.43;;;4.60;;
37445;SDS011;23307;51.136;14.942;2023-01-19T00:12:04;6.67;;;5.20;;
37445;SDS011;23307;51.136;14.942;2023-01-19T00:14:30;7.77;;;5.80;;
37445;SDS011;23307;51.136;14.942;2023-01-19T00:16:56;6.20;;;5.60;;
37445;SDS011;23307;51.136;14.942;2023-01-19T00:19:21;6.03;;;4.97;;
37445;SDS011;23307;51.136;14.942;2023-01-19T00:21:47;6.63;;;4.93;;
37445;SDS011;23307;51.136;14.942;2023-01-19T00:24:13;6.07;;;4.63;;
37445;SDS011;23307;51.136;14.942;2023-01-19T00:26:39;7.40;;;4.97;;
37445;SDS011;23307;51.136;14.942;2023-01-19T00:29:06;5.20;;;4.23;;
37445;SDS011;23307;51.136;14.942;2023-01-19T00:31:34;6.60;;;4.73;;
37445;SDS011;23307;51.136;14.942;2023-01-19T00:33:59;4.93;;;4.50;;
37445;SDS011;23307;51.136;14.942;2023-01-19T00:36:25;4.27;;;3.87;;
37445;SDS011;23307;51.136;14.942;2023-01-19T00:38:50;5.60;;;4.73;;
37445;SDS011;23307;51.136;14.942;2023-01-19T00:41:16;4.67;;;4.20;;
37445;SDS011;23307;51.136;14.942;2023-01-19T00:43:42;4.13;;;3.73;;
37445;SDS011;23307;51.136;14.942;2023-01-19T00:46:07;3.73;;;3.30;;
37445;SDS011;23307;51.136;14.942;2023-01-19T00:48:33;3.80;;;3.50;;
37445;SDS011;23307;51.136;14.942;2023-01-19T00:50:59;3.30;;;3.00;;
37445;SDS011;23307;51.136;14.942;2023-01-19T00:53:24;4.07;;;3.20;;
37445;SDS011;23307;51.136;14.942;2023-01-19T00:55:50;4.37;;;3.23;;
37445;SDS011;23307;51.136;14.942;2023-01-19T00:58:15;4.83;;;3.80;;
37445;SDS011;23307;51.136;14.942;2023-01-19T01:00:41;4.23;;;3.60;;
37445;SDS011;23307;51.136;14.942;2023-01-19T01:03:07;4.47;;;3.60;;
37445;SDS011;23307;51.136;14.942;2023-01-19T01:05:32;5.20;;;3.73;;
37445;SDS011;23307;51.136;14.942;2023-01-19T01:07:57;3.70;;;3.20;;
37445;SDS011;23307;51.136;14.942;2023-01-19T01:10:24;7.30;;;3.60;;
37445;SDS011;23307;51.136;14.942;2023-01-19T01:12:51;4.00;;;3.30;;
37445;SDS011;23307;51.136;14.942;2023-01-19T01:15:17;5.70;;;4.27;;
37445;SDS011;23307;51.136;14.942;2023-01-19T01:17:43;5.23;;;4.27;;
37445;SDS011;23307;51.136;14.942;2023-01-19T01:20:16;7.67;;;4.37;;
37445;SDS011;23307;51.136;14.942;2023-01-19T01:22:48;5.87;;;4.57;;
37445;SDS011;23307;51.136;14.942;2023-01-19T01:25:16;5.40;;;4.40;;
37445;SDS011;23307;51.136;14.942;2023-01-19T01:27:43;5.23;;;4.70;;
37445;SDS011;23307;51.136;14.942;2023-01-19T01:30:09;6.37;;;4.90;;
37445;SDS011;23307;51.136;14.942;2023-01-19T01:32:38;7.63;;;4.80;;
37445;SDS011;23307;51.136;14.942;2023-01-19T01:35:04;7.87;;;4.80;;
37445;SDS011;23307;51.136;14.942;2023-01-19T01:37:30;8.60;;;4.80;;
37445;SDS011;23307;51.136;14.942;2023-01-19T01:39:55;7.57;;;4.63;;
37445;SDS011;23307;51.136;14.942;2023-01-19T01:42:25;6.57;;;5.27;;
37445;SDS011;23307;51.136;14.942;2023-01-19T01:44:54;8.63;;;4.70;;
37445;SDS011;23307;51.136;14.942;2023-01-19T01:47:31;9.30;;;5.10;;
37445;SDS011;23307;51.136;14.942;2023-01-19T01:50:13;7.40;;;4.87;;
37445;SDS011;23307;51.136;14.942;2023-01-19T01:52:40;6.83;;;4.87;;
37445;SDS011;23307;51.136;14.942;2023-01-19T01:55:10;5.47;;;4.50;;
37445;SDS011;23307;51.136;14.942;2023-01-19T01:57:38;7.73;;;5.00;;
37445;SDS011;23307;51.136;14.942;2023-01-19T02:00:07;5.27;;;4.43;;
37445;SDS011;23307;51.136;14.942;2023-01-19T02:02:34;7.53;;;5.67;;
37445;SDS011;23307;51.136;14.942;2023-01-19T02:08:02;6.50;;;5.37;;
37445;SDS011;23307;51.136;14.942;2023-01-19T02:10:51;7.40;;;5.10;;
37445;SDS011;23307;51.136;14.942;2023-01-19T02:13:37;6.87;;;4.73;;
37445;SDS011;23307;51.136;14.942;2023-01-19T02:16:07;7.33;;;5.20;;
37445;SDS011;23307;51.136;14.942;2023-01-19T02:18:34;7.23;;;4.73;;
37445;SDS011;23307;51.136;14.942;2023-01-19T02:24:01;8.60;;;5.50;;
37445;SDS011;23307;51.136;14.942;2023-01-19T02:26:32;7.27;;;5.30;;
37445;SDS011;23307;51.136;14.942;2023-01-19T02:29:06;6.00;;;5.37;;
37445;SDS011;23307;51.136;14.942;2023-01-19T02:31:34;5.67;;;4.97;;
37445;SDS011;23307;51.136;14.942;2023-01-19T02:34:01;8.80;;;5.57;;
37445;SDS011;23307;51.136;14.942;2023-01-19T02:36:30;6.40;;;5.60;;
37445;SDS011;23307;51.136;14.942;2023-01-19T02:39:18;7.30;;;5.67;;
37445;SDS011;23307;51.136;14.942;2023-01-19T02:41:50;8.40;;;6.37;;
37445;SDS011;23307;51.136;14.942;2023-01-19T02:44:18;8.10;;;6.20;;
37445;SDS011;23307;51.136;14.942;2023-01-19T02:46:47;9.00;;;6.03;;
37445;SDS011;23307;51.136;14.942;2023-01-19T02:49:12;8.77;;;5.97;;
37445;SDS011;23307;51.136;14.942;2023-01-19T02:51:38;8.60;;;6.10;;
37445;SDS011;23307;51.136;14.942;2023-01-19T02:54:09;9.07;;;6.20;;
37445;SDS011;23307;51.136;14.942;2023-01-19T02:56:43;8.73;;;6.87;;
37445;SDS011;23307;51.136;14.942;2023-01-19T03:04:45;7.90;;;6.10;;
37445;SDS011;23307;51.136;14.942;2023-01-19T03:07:35;8.50;;;6.00;;
37445;SDS011;23307;51.136;14.942;2023-01-19T03:10:16;11.53;;;6.63;;
37445;SDS011;23307;51.136;14.942;2023-01-19T03:12:56;9.57;;;7.20;;
37445;SDS011;23307;51.136;14.942;2023-01-19T03:16:16;7.77;;;6.03;;
37445;SDS011;23307;51.136;14.942;2023-01-19T03:18:24;9.47;;;6.33;;
37445;SDS011;23307;51.136;14.942;2023-01-19T03:20:54;8.77;;;6.40;;
37445;SDS011;23307;51.136;14.942;2023-01-19T03:23:25;10.13;;;5.47;;
37445;SDS011;23307;51.136;14.942;2023-01-19T03:25:54;10.77;;;6.13;;
37445;SDS011;23307;51.136;14.942;2023-01-19T03:28:22;12.97;;;5.60;;
37445;SDS011;23307;51.136;14.942;2023-01-19T03:30:55;8.57;;;6.00;;
37445;SDS011;23307;51.136;14.942;2023-01-19T03:33:35;10.53;;;5.57;;
37445;SDS011;23307;51.136;14.942;2023-01-19T03:36:04;9.23;;;6.30;;
37445;SDS011;23307;51.136;14.942;2023-01-19T03:38:34;11.53;;;6.03;;
37445;SDS011;23307;51.136;14.942;2023-01-19T03:41:04;9.87;;;6.07;;
37445;SDS011;23307;51.136;14.942;2023-01-19T03:43:34;11.27;;;6.30;;
37445;SDS011;23307;51.136;14.942;2023-01-19T03:46:02;8.63;;;6.17;;
37445;SDS011;23307;51.136;14.942;2023-01-19T03:48:30;8.33;;;6.13;;
37445;SDS011;23307;51.136;14.942;2023-01-19T03:50:56;13.10;;;6.53;;
37445;SDS011;23307;51.136;14.942;2023-01-19T03:53:22;9.53;;;6.50;;
37445;SDS011;23307;51.136;14.942;2023-01-19T03:55:49;10.97;;;6.30;;
37445;SDS011;23307;51.136;14.942;2023-01-19T03:58:16;13.67;;;7.43;;
37445;SDS011;23307;51.136;14.942;2023-01-19T04:00:41;10.80;;;6.80;;
37445;SDS011;23307;51.136;14.942;2023-01-19T04:03:11;9.00;;;6.73;;
37445;SDS011;23307;51.136;14.942;2023-01-19T04:05:38;11.93;;;6.50;;
37445;SDS011;23307;51.136;14.942;2023-01-19T04:08:04;8.67;;;6.57;;
37445;SDS011;23307;51.136;14.942;2023-01-19T04:10:29;9.23;;;6.90;;
37445;SDS011;23307;51.136;14.942;2023-01-19T04:12:56;11.80;;;7.20;;
37445;SDS011;23307;51.136;14.942;2023-01-19T04:15:22;11.77;;;6.80;;
37445;SDS011;23307;51.136;14.942;2023-01-19T04:17:48;10.80;;;6.63;;
37445;SDS011;23307;51.136;14.942;2023-01-19T04:20:13;8.93;;;6.30;;
37445;SDS011;23307;51.136;14.942;2023-01-19T04:22:39;11.40;;;6.60;;
37445;SDS011;23307;51.136;14.942;2023-01-19T04:25:05;8.93;;;5.77;;
37445;SDS011;23307;51.136;14.942;2023-01-19T04:27:31;9.43;;;6.07;;
37445;SDS011;23307;51.136;14.942;2023-01-19T04:29:56;7.33;;;5.73;;
37445;SDS011;23307;51.136;14.942;2023-01-19T04:32:23;8.63;;;5.40;;
37445;SDS011;23307;51.136;14.942;2023-01-19T04:34:49;7.40;;;5.07;;
37445;SDS011;23307;51.136;14.942;2023-01-19T04:37:14;10.77;;;5.00;;
37445;SDS011;23307;51.136;14.942;2023-01-19T04:39:40;8.33;;;5.17;;
37445;SDS011;23307;51.136;14.942;2023-01-19T04:42:05;6.03;;;4.40;;
37445;SDS011;23307;51.136;14.942;2023-01-19T04:44:31;5.77;;;4.50;;
37445;SDS011;23307;51.136;14.942;2023-01-19T04:46:57;7.77;;;4.27;;
37445;SDS011;23307;51.136;14.942;2023-01-19T04:49:22;6.30;;;4.60;;
37445;SDS011;23307;51.136;14.942;2023-01-19T04:51:48;6.57;;;4.60;;
37445;SDS011;23307;51.136;14.942;2023-01-19T04:54:16;8.50;;;5.53;;
37445;SDS011;23307;51.136;14.942;2023-01-19T04:56:42;7.73;;;5.27;;
37445;SDS011;23307;51.136;14.942;2023-01-19T04:59:07;8.03;;;5.80;;
37445;SDS011;23307;51.136;14.942;2023-01-19T05:01:33;10.70;;;6.43;;
37445;SDS011;23307;51.136;14.942;2023-01-19T05:03:58;10.70;;;7.17;;
37445;SDS011;23307;51.136;14.942;2023-01-19T05:06:24;11.67;;;6.60;;
37445;SDS011;23307;51.136;14.942;2023-01-19T05:08:50;9.40;;;7.07;;
37445;SDS011;23307;51.136;14.942;2023-01-19T05:11:15;10.00;;;6.83;;
37445;SDS011;23307;51.136;14.942;2023-01-19T05:13:41;10.03;;;6.73;;
37445;SDS011;23307;51.136;14.942;2023-01-19T05:16:07;10.03;;;6.80;;
37445;SDS011;23307;51.136;14.942;2023-01-19T05:18:32;10.27;;;7.33;;
37445;SDS011;23307;51.136;14.942;2023-01-19T05:21:01;10.60;;;6.93;;
37445;SDS011;23307;51.136;14.942;2023-01-19T05:23:27;11.10;;;7.73;;
37445;SDS011;23307;51.136;14.942;2023-01-19T05:25:55;10.80;;;6.90;;
37445;SDS011;23307;51.136;14.942;2023-01-19T05:28:20;10.43;;;6.57;;
37445;SDS011;23307;51.136;14.942;2023-01-19T05:30:48;8.53;;;6.27;;
37445;SDS011;23307;51.136;14.942;2023-01-19T05:33:13;8.77;;;6.57;;
37445;SDS011;23307;51.136;14.942;2023-01-19T05:35:39;10.60;;;7.30;;
37445;SDS011;23307;51.136;14.942;2023-01-19T05:38:04;11.13;;;7.33;;
37445;SDS011;23307;51.136;14.942;2023-01-19T05:40:30;11.60;;;7.23;;
37445;SDS011;23307;51.136;14.942;2023-01-19T05:42:56;12.33;;;6.90;;
37445;SDS011;23307;51.136;14.942;2023-01-19T05:45:24;12.67;;;6.93;;
37445;SDS011;23307;51.136;14.942;2023-01-19T05:47:52;12.87;;;7.50;;
37445;SDS011;23307;51.136;14.942;2023-01-19T05:50:18;12.17;;;7.87;;
37445;SDS011;23307;51.136;14.942;2023-01-19T05:52:44;9.33;;;6.93;;
37445;SDS011;23307;51.136;14.942;2023-01-19T05:55:10;10.70;;;6.87;;
37445;SDS011;23307;51.136;14.942;2023-01-19T05:57:35;14.20;;;7.40;;
37445;SDS011;23307;51.136;14.942;2023-01-19T06:00:01;11.70;;;7.17;;
37445;SDS011;23307;51.136;14.942;2023-01-19T06:02:28;10.30;;;7.23;;
37445;SDS011;23307;51.136;14.942;2023-01-19T06:04:54;10.30;;;6.67;;
37445;SDS011;23307;51.136;14.942;2023-01-19T06:07:20;10.90;;;6.70;;
37445;SDS011;23307;51.136;14.942;2023-01-19T06:09:46;10.13;;;5.40;;
37445;SDS011;23307;51.136;14.942;2023-01-19T06:12:11;10.03;;;6.10;;
37445;SDS011;23307;51.136;14.942;2023-01-19T06:14:37;11.17;;;6.37;;
37445;SDS011;23307;51.136;14.942;2023-01-19T06:17:02;7.63;;;5.37;;
37445;SDS011;23307;51.136;14.942;2023-01-19T06:19:30;9.07;;;6.10;;
37445;SDS011;23307;51.136;14.942;2023-01-19T06:21:55;10.50;;;6.10;;
37445;SDS011;23307;51.136;14.942;2023-01-19T06:24:21;10.40;;;6.67;;
37445;SDS011;23307;51.136;14.942;2023-01-19T06:26:48;11.37;;;7.10;;
37445;SDS011;23307;51.136;14.942;2023-01-19T06:29:13;8.73;;;6.93;;
37445;SDS011;23307;51.136;14.942;2023-01-19T06:31:39;12.83;;;7.53;;
37445;SDS011;23307;51.136;14.942;2023-01-19T06:34:05;10.37;;;7.97;;
37445;SDS011;23307;51.136;14.942;2023-01-19T06:36:31;15.30;;;9.03;;
37445;SDS011;23307;51.136;14.942;2023-01-19T06:38:56;17.57;;;10.07;;
37445;SDS011;23307;51.136;14.942;2023-01-19T06:41:22;14.80;;;9.93;;
37445;SDS011;23307;51.136;14.942;2023-01-19T06:43:48;13.57;;;8.87;;
37445;SDS011;23307;51.136;14.942;2023-01-19T06:46:13;11.00;;;8.17;;
37445;SDS011;23307;51.136;14.942;2023-01-19T06:48:39;12.70;;;7.87;;
37445;SDS011;23307;51.136;14.942;2023-01-19T06:51:05;11.60;;;7.37;;
37445;SDS011;23307;51.136;14.942;2023-01-19T06:53:30;11.47;;;8.40;;
37445;SDS011;23307;51.136;14.942;2023-01-19T06:55:57;11.97;;;8.10;;
37445;SDS011;23307;51.136;14.942;2023-01-19T06:58:23;11.97;;;7.63;;
37445;SDS011;23307;51.136;14.942;2023-01-19T07:00:49;11.87;;;7.60;;
37445;SDS011;23307;51.136;14.942;2023-01-19T07:03:19;12.57;;;7.70;;
37445;SDS011;23307;51.136;14.942;2023-01-19T07:05:46;10.67;;;7.47;;
37445;SDS011;23307;51.136;14.942;2023-01-19T07:08:15;9.27;;;5.80;;
37445;SDS011;23307;51.136;14.942;2023-01-19T07:10:40;9.63;;;6.90;;
37445;SDS011;23307;51.136;14.942;2023-01-19T07:13:06;8.83;;;5.90;;
37445;SDS011;23307;51.136;14.942;2023-01-19T07:15:31;12.93;;;7.37;;
37445;SDS011;23307;51.136;14.942;2023-01-19T07:17:57;10.63;;;6.13;;
37445;SDS011;23307;51.136;14.942;2023-01-19T07:20:23;10.07;;;5.73;;
37445;SDS011;23307;51.136;14.942;2023-01-19T07:22:54;9.13;;;5.67;;
37445;SDS011;23307;51.136;14.942;2023-01-19T07:25:20;8.70;;;5.73;;
37445;SDS011;23307;51.136;14.942;2023-01-19T07:27:46;8.47;;;5.50;;
37445;SDS011;23307;51.136;14.942;2023-01-19T07:30:12;11.40;;;5.07;;
37445;SDS011;23307;51.136;14.942;2023-01-19T07:32:39;9.67;;;5.70;;
37445;SDS011;23307;51.136;14.942;2023-01-19T07:35:06;7.60;;;5.53;;
37445;SDS011;23307;51.136;14.942;2023-01-19T07:37:32;8.60;;;5.50;;
37445;SDS011;23307;51.136;14.942;2023-01-19T07:39:58;9.53;;;5.30;;
37445;SDS011;23307;51.136;14.942;2023-01-19T07:42:23;10.60;;;4.83;;
37445;SDS011;23307;51.136;14.942;2023-01-19T07:44:49;11.37;;;5.83;;
37445;SDS011;23307;51.136;14.942;2023-01-19T07:47:14;10.07;;;5.50;;
37445;SDS011;23307;51.136;14.942;2023-01-19T07:49:40;15.10;;;8.03;;
37445;SDS011;23307;51.136;14.942;2023-01-19T07:52:06;19.60;;;10.17;;
37445;SDS011;23307;51.136;14.942;2023-01-19T07:54:31;15.37;;;9.20;;
37445;SDS011;23307;51.136;14.942;2023-01-19T07:56:57;12.27;;;7.60;;
37445;SDS011;23307;51.136;14.942;2023-01-19T07:59:24;15.07;;;8.50;;
37445;SDS011;23307;51.136;14.942;2023-01-19T08:01:50;14.33;;;9.13;;
37445;SDS011;23307;51.136;14.942;2023-01-19T08:04:17;9.23;;;6.47;;
37445;SDS011;23307;51.136;14.942;2023-01-19T08:06:43;8.17;;;6.27;;
37445;SDS011;23307;51.136;14.942;2023-01-19T08:09:09;8.60;;;5.87;;
37445;SDS011;23307;51.136;14.942;2023-01-19T08:11:35;8.67;;;5.40;;
37445;SDS011;23307;51.136;14.942;2023-01-19T08:14:01;7.77;;;4.47;;
37445;SDS011;23307;51.136;14.942;2023-01-19T08:16:27;6.87;;;4.80;;
37445;SDS011;23307;51.136;14.942;2023-01-19T08:18:53;5.87;;;4.40;;
37445;SDS011;23307;51.136;14.942;2023-01-19T08:21:18;6.57;;;4.63;;
37445;SDS011;23307;51.136;14.942;2023-01-19T08:23:50;6.03;;;3.93;;
37445;SDS011;23307;51.136;14.942;2023-01-19T08:26:17;7.27;;;4.20;;
37445;SDS011;23307;51.136;14.942;2023-01-19T08:28:44;5.67;;;4.37;;
37445;SDS011;23307;51.136;14.942;2023-01-19T08:31:09;11.00;;;5.00;;
37445;SDS011;23307;51.136;14.942;2023-01-19T08:33:35;5.10;;;4.00;;
37445;SDS011;23307;51.136;14.942;2023-01-19T08:36:01;5.60;;;3.87;;
37445;SDS011;23307;51.136;14.942;2023-01-19T08:38:26;7.20;;;4.03;;
37445;SDS011;23307;51.136;14.942;2023-01-19T08:40:52;9.10;;;4.73;;
37445;SDS011;23307;51.136;14.942;2023-01-19T08:43:17;5.60;;;4.37;;
37445;SDS011;23307;51.136;14.942;2023-01-19T08:45:45;6.23;;;4.10;;
37445;SDS011;23307;51.136;14.942;2023-01-19T08:48:14;6.87;;;4.33;;
37445;SDS011;23307;51.136;14.942;2023-01-19T08:50:44;5.50;;;4.00;;
37445;SDS011;23307;51.136;14.942;2023-01-19T08:53:10;4.60;;;3.83;;
37445;SDS011;23307;51.136;14.942;2023-01-19T08:55:36;6.57;;;4.27;;
37445;SDS011;23307;51.136;14.942;2023-01-19T08:58:02;5.10;;;3.90;;
37445;SDS011;23307;51.136;14.942;2023-01-19T09:00:29;7.27;;;4.07;;
37445;SDS011;23307;51.136;14.942;2023-01-19T09:02:57;7.60;;;4.60;;
37445;SDS011;23307;51.136;14.942;2023-01-19T09:05:23;7.23;;;4.20;;
37445;SDS011;23307;51.136;14.942;2023-01-19T09:07:48;6.23;;;4.10;;
37445;SDS011;23307;51.136;14.942;2023-01-19T09:10:16;8.20;;;3.93;;
37445;SDS011;23307;51.136;14.942;2023-01-19T09:12:42;8.63;;;4.77;;
37445;SDS011;23307;51.136;14.942;2023-01-19T09:15:09;5.37;;;3.67;;
37445;SDS011;23307;51.136;14.942;2023-01-19T09:17:37;5.53;;;3.60;;
37445;SDS011;23307;51.136;14.942;2023-01-19T09:20:03;6.07;;;3.20;;
37445;SDS011;23307;51.136;14.942;2023-01-19T09:22:29;5.17;;;3.47;;
37445;SDS011;23307;51.136;14.942;2023-01-19T09:24:56;5.80;;;3.63;;
37445;SDS011;23307;51.136;14.942;2023-01-19T09:27:22;4.83;;;3.30;;
37445;SDS011;23307;51.136;14.942;2023-01-19T09:29:48;10.50;;;5.27;;
37445;SDS011;23307;51.136;14.942;2023-01-19T09:32:16;6.50;;;4.27;;
37445;SDS011;23307;51.136;14.942;2023-01-19T09:34:43;7.33;;;5.20;;
37445;SDS011;23307;51.136;14.942;2023-01-19T09:37:09;6.13;;;4.40;;
37445;SDS011;23307;51.136;14.942;2023-01-19T09:39:34;4.80;;;3.60;;
37445;SDS011;23307;51.136;14.942;2023-01-19T09:42:03;7.17;;;4.00;;
37445;SDS011;23307;51.136;14.942;2023-01-19T09:44:55;5.40;;;4.17;;
37445;SDS011;23307;51.136;14.942;2023-01-19T09:47:22;4.97;;;3.90;;
37445;SDS011;23307;51.136;14.942;2023-01-19T09:49:52;5.93;;;3.80;;
37445;SDS011;23307;51.136;14.942;2023-01-19T09:52:24;7.00;;;3.67;;
37445;SDS011;23307;51.136;14.942;2023-01-19T09:54:54;6.17;;;3.60;;
37445;SDS011;23307;51.136;14.942;2023-01-19T09:57:21;6.10;;;3.93;;
37445;SDS011;23307;51.136;14.942;2023-01-19T09:59:49;5.83;;;4.30;;
37445;SDS011;23307;51.136;14.942;2023-01-19T10:12:48;6.57;;;5.17;;
37445;SDS011;23307;51.136;14.942;2023-01-19T10:15:23;7.80;;;5.23;;
37445;SDS011;23307;51.136;14.942;2023-01-19T10:18:15;8.30;;;5.20;;
37445;SDS011;23307;51.136;14.942;2023-01-19T10:21:03;10.37;;;4.97;;
37445;SDS011;23307;51.136;14.942;2023-01-19T10:23:49;9.37;;;5.30;;
37445;SDS011;23307;51.136;14.942;2023-01-19T10:26:31;8.40;;;5.07;;
37445;SDS011;23307;51.136;14.942;2023-01-19T10:29:01;7.30;;;5.57;;
37445;SDS011;23307;51.136;14.942;2023-01-19T10:31:30;7.20;;;5.33;;
37445;SDS011;23307;51.136;14.942;2023-01-19T10:33:57;8.77;;;5.30;;
37445;SDS011;23307;51.136;14.942;2023-01-19T10:36:33;7.57;;;5.17;;
37445;SDS011;23307;51.136;14.942;2023-01-19T10:39:02;8.37;;;5.13;;
37445;SDS011;23307;51.136;14.942;2023-01-19T10:41:30;7.70;;;4.70;;
37445;SDS011;23307;51.136;14.942;2023-01-19T10:44:04;7.63;;;4.90;;
37445;SDS011;23307;51.136;14.942;2023-01-19T10:49:28;7.50;;;5.20;;
37445;SDS011;23307;51.136;14.942;2023-01-19T10:51:59;8.07;;;5.17;;
37445;SDS011;23307;51.136;14.942;2023-01-19T10:54:26;6.93;;;4.90;;
37445;SDS011;23307;51.136;14.942;2023-01-19T10:57:00;8.20;;;5.60;;
37445;SDS011;23307;51.136;14.942;2023-01-19T10:59:29;5.93;;;4.57;;
37445;SDS011;23307;51.136;14.942;2023-01-19T11:02:17;8.77;;;4.80;;
37445;SDS011;23307;51.136;14.942;2023-01-19T11:04:50;6.73;;;4.87;;
37445;SDS011;23307;51.136;14.942;2023-01-19T11:07:19;10.30;;;6.20;;
37445;SDS011;23307;51.136;14.942;2023-01-19T11:12:42;11.17;;;6.10;;
37445;SDS011;23307;51.136;14.942;2023-01-19T11:17:40;8.27;;;5.53;;
37445;SDS011;23307;51.136;14.942;2023-01-19T11:20:16;9.23;;;5.87;;
37445;SDS011;23307;51.136;14.942;2023-01-19T11:22:47;6.73;;;5.63;;
37445;SDS011;23307;51.136;14.942;2023-01-19T11:25:28;8.60;;;5.70;;
37445;SDS011;23307;51.136;14.942;2023-01-19T11:27:56;7.67;;;5.27;;
37445;SDS011;23307;51.136;14.942;2023-01-19T11:30:23;10.90;;;6.27;;
37445;SDS011;23307;51.136;14.942;2023-01-19T11:32:50;8.00;;;5.53;;
37445;SDS011;23307;51.136;14.942;2023-01-19T11:38:14;7.40;;;5.47;;
37445;SDS011;23307;51.136;14.942;2023-01-19T11:40:45;8.60;;;5.53;;
37445;SDS011;23307;51.136;14.942;2023-01-19T11:43:16;9.33;;;6.33;;
37445;SDS011;23307;51.136;14.942;2023-01-19T11:45:43;7.67;;;5.80;;
37445;SDS011;23307;51.136;14.942;2023-01-19T11:48:11;8.93;;;5.60;;
37445;SDS011;23307;51.136;14.942;2023-01-19T11:50:45;9.20;;;5.50;;
37445;SDS011;23307;51.136;14.942;2023-01-19T11:58:22;9.30;;;5.63;;
37445;SDS011;23307;51.136;14.942;2023-01-19T12:03:28;9.67;;;5.30;;
37445;SDS011;23307;51.136;14.942;2023-01-19T12:06:32;7.00;;;5.27;;
37445;SDS011;23307;51.136;14.942;2023-01-19T12:08:54;6.13;;;4.57;;
37445;SDS011;23307;51.136;14.942;2023-01-19T12:11:48;7.20;;;5.17;;
37445;SDS011;23307;51.136;14.942;2023-01-19T12:14:21;10.17;;;6.47;;
37445;SDS011;23307;51.136;14.942;2023-01-19T12:16:49;11.47;;;6.37;;
37445;SDS011;23307;51.136;14.942;2023-01-19T12:19:18;9.00;;;6.27;;
37445;SDS011;23307;51.136;14.942;2023-01-19T12:21:49;9.10;;;6.40;;
37445;SDS011;23307;51.136;14.942;2023-01-19T12:24:26;10.43;;;6.53;;
37445;SDS011;23307;51.136;14.942;2023-01-19T12:26:58;9.63;;;5.70;;
37445;SDS011;23307;51.136;14.942;2023-01-19T12:29:32;7.90;;;6.27;;
37445;SDS011;23307;51.136;14.942;2023-01-19T12:34:44;7.97;;;5.63;;
37445;SDS011;23307;51.136;14.942;2023-01-19T12:37:28;7.50;;;5.50;;
37445;SDS011;23307;51.136;14.942;2023-01-19T12:42:59;13.03;;;7.77;;
37445;SDS011;23307;51.136;14.942;2023-01-19T12:45:32;8.50;;;6.10;;
37445;SDS011;23307;51.136;14.942;2023-01-19T12:48:03;9.13;;;6.60;;
37445;SDS011;23307;51.136;14.942;2023-01-19T12:50:36;9.30;;;6.63;;
37445;SDS011;23307;51.136;14.942;2023-01-19T12:53:02;8.97;;;5.93;;
37445;SDS011;23307;51.136;14.942;2023-01-19T12:55:33;9.77;;;5.80;;
37445;SDS011;23307;51.136;14.942;2023-01-19T12:58:06;11.30;;;6.80;;
37445;SDS011;23307;51.136;14.942;2023-01-19T13:00:43;26.13;;;15.40;;
37445;SDS011;23307;51.136;14.942;2023-01-19T13:13:21;9.40;;;7.13;;
37445;SDS011;23307;51.136;14.942;2023-01-19T13:15:48;9.70;;;6.30;;
37445;SDS011;23307;51.136;14.942;2023-01-19T13:18:18;7.30;;;4.37;;
37445;SDS011;23307;51.136;14.942;2023-01-19T13:21:05;8.67;;;5.00;;
37445;SDS011;23307;51.136;14.942;2023-01-19T13:26:19;10.67;;;6.20;;
37445;SDS011;23307;51.136;14.942;2023-01-19T13:28:51;9.97;;;5.97;;
37445;SDS011;23307;51.136;14.942;2023-01-19T13:31:19;7.43;;;4.93;;
37445;SDS011;23307;51.136;14.942;2023-01-19T13:33:55;9.80;;;5.33;;
37445;SDS011;23307;51.136;14.942;2023-01-19T13:36:24;9.00;;;4.70;;
37445;SDS011;23307;51.136;14.942;2023-01-19T13:39:03;6.93;;;4.87;;
37445;SDS011;23307;51.136;14.942;2023-01-19T13:41:50;6.80;;;4.57;;
37445;SDS011;23307;51.136;14.942;2023-01-19T13:44:20;6.47;;;4.70;;
37445;SDS011;23307;51.136;14.942;2023-01-19T13:46:50;6.67;;;4.90;;
37445;SDS011;23307;51.136;14.942;2023-01-19T13:49:23;10.37;;;5.87;;
37445;SDS011;23307;51.136;14.942;2023-01-19T13:52:03;7.87;;;5.00;;
37445;SDS011;23307;51.136;14.942;2023-01-19T13:54:36;9.40;;;5.27;;
37445;SDS011;23307;51.136;14.942;2023-01-19T13:57:01;7.77;;;5.00;;
37445;SDS011;23307;51.136;14.942;2023-01-19T13:59:27;6.03;;;4.33;;
37445;SDS011;23307;51.136;14.942;2023-01-19T14:01:52;5.40;;;4.40;;
37445;SDS011;23307;51.136;14.942;2023-01-19T14:04:28;6.70;;;4.50;;
37445;SDS011;23307;51.136;14.942;2023-01-19T14:06:56;7.30;;;4.20;;
37445;SDS011;23307;51.136;14.942;2023-01-19T14:09:26;6.93;;;4.27;;
37445;SDS011;23307;51.136;14.942;2023-01-19T14:12:06;6.50;;;4.03;;
37445;SDS011;23307;51.136;14.942;2023-01-19T14:14:32;9.00;;;4.90;;
37445;SDS011;23307;51.136;14.942;2023-01-19T14:16:58;6.20;;;4.70;;
37445;SDS011;23307;51.136;14.942;2023-01-19T14:19:23;7.33;;;4.83;;
37445;SDS011;23307;51.136;14.942;2023-01-19T14:22:02;6.43;;;4.27;;
37445;SDS011;23307;51.136;14.942;2023-01-19T14:24:28;5.80;;;4.10;;
37445;SDS011;23307;51.136;14.942;2023-01-19T14:27:07;6.60;;;4.27;;
37445;SDS011;23307;51.136;14.942;2023-01-19T14:29:35;6.40;;;4.23;;
37445;SDS011;23307;51.136;14.942;2023-01-19T14:34:40;5.43;;;3.97;;
37445;SDS011;23307;51.136;14.942;2023-01-19T14:37:19;6.00;;;4.20;;
37445;SDS011;23307;51.136;14.942;2023-01-19T14:39:57;8.33;;;4.20;;
37445;SDS011;23307;51.136;14.942;2023-01-19T14:45:16;5.87;;;4.00;;
37445;SDS011;23307;51.136;14.942;2023-01-19T14:47:53;5.50;;;3.70;;
37445;SDS011;23307;51.136;14.942;2023-01-19T14:53:01;6.23;;;4.00;;
37445;SDS011;23307;51.136;14.942;2023-01-19T14:55:38;6.47;;;4.30;;
37445;SDS011;23307;51.136;14.942;2023-01-19T14:58:10;7.40;;;4.67;;
37445;SDS011;23307;51.136;14.942;2023-01-19T15:00:37;6.63;;;4.30;;
37445;SDS011;23307;51.136;14.942;2023-01-19T15:03:03;7.37;;;4.97;;
37445;SDS011;23307;51.136;14.942;2023-01-19T15:05:30;8.37;;;5.30;;
37445;SDS011;23307;51.136;14.942;2023-01-19T15:07:58;8.50;;;5.30;;
37445;SDS011;23307;51.136;14.942;2023-01-19T15:10:26;8.47;;;5.37;;
37445;SDS011;23307;51.136;14.942;2023-01-19T15:12:52;8.37;;;5.37;;
37445;SDS011;23307;51.136;14.942;2023-01-19T15:15:22;9.50;;;5.87;;
37445;SDS011;23307;51.136;14.942;2023-01-19T15:17:53;11.57;;;7.10;;
37445;SDS011;23307;51.136;14.942;2023-01-19T15:20:19;7.97;;;5.57;;
37445;SDS011;23307;51.136;14.942;2023-01-19T15:22:46;10.33;;;5.80;;
37445;SDS011;23307;51.136;14.942;2023-01-19T15:25:15;9.30;;;5.67;;
37445;SDS011;23307;51.136;14.942;2023-01-19T15:27:43;11.57;;;7.10;;
37445;SDS011;23307;51.136;14.942;2023-01-19T15:30:13;9.40;;;6.10;;
37445;SDS011;23307;51.136;14.942;2023-01-19T15:32:41;9.60;;;6.20;;
37445;SDS011;23307;51.136;14.942;2023-01-19T15:35:11;10.50;;;6.43;;
37445;SDS011;23307;51.136;14.942;2023-01-19T15:37:41;9.90;;;6.13;;
37445;SDS011;23307;51.136;14.942;2023-01-19T15:40:07;12.57;;;6.90;;
37445;SDS011;23307;51.136;14.942;2023-01-19T15:42:33;9.50;;;6.83;;
37445;SDS011;23307;51.136;14.942;2023-01-19T15:44:59;11.13;;;7.50;;
37445;SDS011;23307;51.136;14.942;2023-01-19T15:47:24;14.10;;;7.67;;
37445;SDS011;23307;51.136;14.942;2023-01-19T15:49:50;12.80;;;8.40;;